createdAt,value
2017-06-03T00:00:45.419Z,1012.42
2017-06-03T00:01:57.663Z,1012.34
2017-06-03T00:03:09.884Z,1012.33
2017-06-03T00:04:22.391Z,1012.35
2017-06-03T00:05:34.926Z,1012.34
2017-06-03T00:06:47.433Z,1012.35
2017-06-03T00:07:59.967Z,1012.31
2017-06-03T00:09:12.199Z,1012.33
2017-06-03T00:10:24.121Z,1012.29
2017-06-03T00:11:36.696Z,1012.33
2017-06-03T00:12:49.234Z,1012.35
2017-06-03T00:14:01.785Z,1012.31
2017-06-03T00:15:14.303Z,1012.31
2017-06-03T00:16:26.828Z,1012.3
2017-06-03T00:17:38.759Z,1012.29
2017-06-03T00:18:50.972Z,1012.29
2017-06-03T00:20:03.203Z,1012.3
2017-06-03T00:21:15.730Z,1012.33
2017-06-03T00:22:27.981Z,1012.29
2017-06-03T00:23:40.477Z,1012.27
2017-06-03T00:24:53.322Z,1012.3
2017-06-03T00:26:05.566Z,1012.27
2017-06-03T00:27:17.503Z,1012.27
2017-06-03T00:28:29.759Z,1012.3
2017-06-03T00:29:42.279Z,1012.3
2017-06-03T00:30:54.847Z,1012.31
2017-06-03T00:32:07.378Z,1012.26
2017-06-03T00:33:19.620Z,1012.21
2017-06-03T00:34:31.835Z,1012.22
2017-06-03T00:35:44.373Z,1012.23
2017-06-03T00:36:56.611Z,1012.2
2017-06-03T00:38:09.127Z,1012.18
2017-06-03T00:39:21.669Z,1012.18
2017-06-03T00:40:34.213Z,1012.15
2017-06-03T00:41:46.766Z,1012.16
2017-06-03T00:42:59.306Z,1012.19
2017-06-03T00:44:11.807Z,1012.18
2017-06-03T00:45:24.044Z,1012.2
2017-06-03T00:46:36.593Z,1012.23
2017-06-03T00:47:49.115Z,1012.17
2017-06-03T00:49:01.640Z,1012.23
2017-06-03T00:50:14.184Z,1012.21
2017-06-03T00:51:26.732Z,1012.2
2017-06-03T00:52:39.553Z,1012.18
2017-06-03T00:53:52.074Z,1012.2
2017-06-03T00:55:04.616Z,1012.16
2017-06-03T00:56:17.137Z,1012.16
2017-06-03T00:57:29.679Z,1012.14
2017-06-03T00:58:42.204Z,1012.13
2017-06-03T00:59:54.742Z,1012.14
2017-06-03T01:01:07.295Z,1012.1
2017-06-03T01:02:19.823Z,1012.13
2017-06-03T01:03:32.340Z,1012.07
2017-06-03T01:04:44.864Z,1012.07
2017-06-03T01:05:57.386Z,1012.1
2017-06-03T01:07:09.605Z,1012.1
2017-06-03T01:08:22.122Z,1012.04
2017-06-03T01:09:34.645Z,1012.06
2017-06-03T01:10:47.191Z,1012.08
2017-06-03T01:11:59.712Z,1012.04
2017-06-03T01:13:12.251Z,1012.08
2017-06-03T01:14:24.768Z,1012.07
2017-06-03T01:15:37.297Z,1012.08
2017-06-03T01:16:49.192Z,1012.12
2017-06-03T01:18:01.439Z,1012.12
2017-06-03T01:19:13.636Z,1012.15
2017-06-03T01:20:25.859Z,1012.13
2017-06-03T01:21:38.400Z,1012.13
2017-06-03T01:22:50.925Z,1012.13
2017-06-03T01:24:03.471Z,1012.16
2017-06-03T01:25:15.689Z,1012.12
2017-06-03T01:26:28.213Z,1012.14
2017-06-03T01:27:40.756Z,1012.11
2017-06-03T01:28:53.279Z,1012.13
2017-06-03T01:30:05.793Z,1012.09
2017-06-03T01:31:18.324Z,1012.08
2017-06-03T01:32:30.845Z,1012.07
2017-06-03T01:33:43.385Z,1012.07
2017-06-03T01:34:55.932Z,1012.07
2017-06-03T01:36:08.432Z,1012.03
2017-06-03T01:37:20.676Z,1012.04
2017-06-03T01:38:33.218Z,1011.99
2017-06-03T01:39:45.457Z,1011.96
2017-06-03T01:40:57.995Z,1011.97
2017-06-03T01:42:10.508Z,1011.98
2017-06-03T01:43:22.435Z,1012
2017-06-03T01:44:34.691Z,1011.95
2017-06-03T01:45:47.224Z,1011.94
2017-06-03T01:46:59.764Z,1011.94
2017-06-03T01:48:12.314Z,1011.92
2017-06-03T01:49:24.856Z,1011.96
2017-06-03T01:50:37.404Z,1011.97
2017-06-03T01:51:49.948Z,1011.96
2017-06-03T01:53:02.472Z,1011.97
2017-06-03T01:54:14.718Z,1011.93
2017-06-03T01:55:27.243Z,1011.91
2017-06-03T01:56:39.764Z,1011.92
2017-06-03T01:57:52.000Z,1011.98
2017-06-03T01:59:04.550Z,1011.93
2017-06-03T02:00:16.798Z,1011.95
2017-06-03T02:01:29.341Z,1011.94
2017-06-03T02:02:41.888Z,1011.92
2017-06-03T02:03:54.129Z,1011.95
2017-06-03T02:05:06.657Z,1011.91
2017-06-03T02:06:19.200Z,1011.9
2017-06-03T02:07:31.749Z,1011.84
2017-06-03T02:08:44.595Z,1011.86
2017-06-03T02:09:57.137Z,1011.85
2017-06-03T02:11:09.663Z,1011.8
2017-06-03T02:12:21.905Z,1011.85
2017-06-03T02:13:34.730Z,1011.78
2017-06-03T02:14:46.650Z,1011.81
2017-06-03T02:15:59.167Z,1011.8
2017-06-03T02:17:11.664Z,1011.76
2017-06-03T02:18:23.890Z,1011.69
2017-06-03T02:19:36.476Z,1011.68
2017-06-03T02:20:49.020Z,1011.7
2017-06-03T02:22:01.575Z,1011.71
2017-06-03T02:23:13.825Z,1011.69
2017-06-03T02:24:26.663Z,1011.71
2017-06-03T02:25:39.218Z,1011.73
2017-06-03T02:26:51.139Z,1011.71
2017-06-03T02:28:03.679Z,1011.71
2017-06-03T02:29:16.217Z,1011.7
2017-06-03T02:30:28.764Z,1011.7
2017-06-03T02:31:41.280Z,1011.71
2017-06-03T02:32:53.264Z,1011.7
2017-06-03T02:34:05.823Z,1011.72
2017-06-03T02:35:18.351Z,1011.72
2017-06-03T02:36:30.877Z,1011.71
2017-06-03T02:37:43.395Z,1011.72
2017-06-03T02:38:55.914Z,1011.72
2017-06-03T02:40:08.435Z,1011.75
2017-06-03T02:41:21.227Z,1011.66
2017-06-03T02:42:33.758Z,1011.72
2017-06-03T02:43:46.315Z,1011.73
2017-06-03T02:44:58.861Z,1011.7
2017-06-03T02:46:11.406Z,1011.69
2017-06-03T02:47:23.936Z,1011.62
2017-06-03T02:48:36.481Z,1011.63
2017-06-03T02:49:49.002Z,1011.63
2017-06-03T02:51:01.528Z,1011.6
2017-06-03T02:52:14.072Z,1011.61
2017-06-03T02:53:26.619Z,1011.58
2017-06-03T02:54:39.164Z,1011.58
2017-06-03T02:55:51.107Z,1011.58
2017-06-03T02:57:03.602Z,1011.54
2017-06-03T02:58:15.542Z,1011.49
2017-06-03T02:59:27.769Z,1011.52
2017-06-03T03:00:39.976Z,1011.49
2017-06-03T03:01:52.514Z,1011.48
2017-06-03T03:03:05.057Z,1011.49
2017-06-03T03:04:17.608Z,1011.53
2017-06-03T03:05:30.149Z,1011.56
2017-06-03T03:06:42.720Z,1011.53
2017-06-03T03:07:55.220Z,1011.6
2017-06-03T03:09:07.465Z,1011.57
2017-06-03T03:10:19.985Z,1011.58
2017-06-03T03:11:32.529Z,1011.58
2017-06-03T03:12:45.046Z,1011.58
2017-06-03T03:13:57.562Z,1011.65
2017-06-03T03:15:09.819Z,1011.68
2017-06-03T03:16:22.045Z,1011.68
2017-06-03T03:17:34.561Z,1011.65
2017-06-03T03:18:46.778Z,1011.62
2017-06-03T03:19:59.332Z,1011.63
2017-06-03T03:21:11.575Z,1011.61
2017-06-03T03:22:23.823Z,1011.67
2017-06-03T03:23:36.355Z,1011.62
2017-06-03T03:24:48.879Z,1011.67
2017-06-03T03:26:01.433Z,1011.68
2017-06-03T03:27:13.689Z,1011.65
2017-06-03T03:28:26.200Z,1011.7
2017-06-03T03:29:38.725Z,1011.66
2017-06-03T03:30:51.238Z,1011.66
2017-06-03T03:32:03.766Z,1011.73
2017-06-03T03:33:16.307Z,1011.67
2017-06-03T03:34:28.555Z,1011.68
2017-06-03T03:35:41.126Z,1011.67
2017-06-03T03:36:53.642Z,1011.71
2017-06-03T03:38:05.863Z,1011.71
2017-06-03T03:39:18.116Z,1011.72
2017-06-03T03:40:30.359Z,1011.74
2017-06-03T03:41:42.901Z,1011.81
2017-06-03T03:42:55.429Z,1011.8
2017-06-03T03:44:07.942Z,1011.83
2017-06-03T03:45:20.193Z,1011.81
2017-06-03T03:46:32.713Z,1011.84
2017-06-03T03:47:45.257Z,1011.78
2017-06-03T03:48:57.781Z,1011.81
2017-06-03T03:50:10.019Z,1011.77
2017-06-03T03:51:22.548Z,1011.81
2017-06-03T03:52:34.797Z,1011.78
2017-06-03T03:53:47.334Z,1011.78
2017-06-03T03:54:59.560Z,1011.8
2017-06-03T03:56:12.095Z,1011.77
2017-06-03T03:57:24.323Z,1011.79
2017-06-03T03:58:36.544Z,1011.79
2017-06-03T03:59:48.761Z,1011.77
2017-06-03T04:01:00.989Z,1011.81
2017-06-03T04:02:13.515Z,1011.8
2017-06-03T04:03:26.052Z,1011.82
2017-06-03T04:04:38.278Z,1011.8
2017-06-03T04:05:50.494Z,1011.8
2017-06-03T04:07:03.020Z,1011.8
2017-06-03T04:08:15.564Z,1011.81
2017-06-03T04:09:27.785Z,1011.77
2017-06-03T04:10:40.309Z,1011.74
2017-06-03T04:11:52.531Z,1011.75
2017-06-03T04:13:05.065Z,1011.71
2017-06-03T04:14:16.965Z,1011.72
2017-06-03T04:15:29.165Z,1011.73
2017-06-03T04:16:41.403Z,1011.7
2017-06-03T04:17:53.657Z,1011.7
2017-06-03T04:19:06.206Z,1011.7
2017-06-03T04:20:18.726Z,1011.68
2017-06-03T04:21:31.262Z,1011.72
2017-06-03T04:22:43.833Z,1011.7
2017-06-03T04:23:56.633Z,1011.77
2017-06-03T04:25:09.184Z,1011.7
2017-06-03T04:26:21.433Z,1011.68
2017-06-03T04:27:33.976Z,1011.67
2017-06-03T04:28:46.192Z,1011.62
2017-06-03T04:29:58.718Z,1011.68
2017-06-03T04:31:10.651Z,1011.7
2017-06-03T04:32:23.204Z,1011.71
2017-06-03T04:33:35.743Z,1011.69
2017-06-03T04:34:47.665Z,1011.66
2017-06-03T04:36:00.199Z,1011.62
2017-06-03T04:37:12.738Z,1011.63
2017-06-03T04:38:24.941Z,1011.64
2017-06-03T04:39:36.873Z,1011.59
2017-06-03T04:40:49.406Z,1011.57
2017-06-03T04:42:01.950Z,1011.6
2017-06-03T04:43:13.885Z,1011.58
2017-06-03T04:44:26.417Z,1011.62
2017-06-03T04:45:39.189Z,1011.6
2017-06-03T04:46:51.734Z,1011.59
2017-06-03T04:48:04.276Z,1011.59
2017-06-03T04:49:16.550Z,1011.58
2017-06-03T04:50:28.461Z,1011.64
2017-06-03T04:51:40.982Z,1011.58
2017-06-03T04:52:53.530Z,1011.61
2017-06-03T04:54:06.055Z,1011.61
2017-06-03T04:55:17.695Z,1011.59
2017-06-03T04:56:30.251Z,1011.56
2017-06-03T04:57:42.488Z,1011.54
2017-06-03T04:58:54.690Z,1011.52
2017-06-03T05:00:06.914Z,1011.47
2017-06-03T05:01:19.453Z,1011.46
2017-06-03T05:02:31.981Z,1011.5
2017-06-03T05:03:44.524Z,1011.52
2017-06-03T05:04:57.052Z,1011.45
2017-06-03T05:06:09.318Z,1011.45
2017-06-03T05:07:21.844Z,1011.43
2017-06-03T05:08:34.388Z,1011.37
2017-06-03T05:09:46.921Z,1011.34
2017-06-03T05:10:59.453Z,1011.33
2017-06-03T05:12:11.699Z,1011.29
2017-06-03T05:13:24.492Z,1011.32
2017-06-03T05:14:37.033Z,1011.31
2017-06-03T05:15:49.558Z,1011.33
2017-06-03T05:17:01.759Z,1011.31
2017-06-03T05:18:14.275Z,1011.26
2017-06-03T05:19:26.473Z,1011.31
2017-06-03T05:20:38.397Z,1011.33
2017-06-03T05:21:50.915Z,1011.3
2017-06-03T05:23:03.154Z,1011.3
2017-06-03T05:24:15.359Z,1011.27
2017-06-03T05:25:27.580Z,1011.29
2017-06-03T05:26:40.096Z,1011.27
2017-06-03T05:27:52.624Z,1011.29
2017-06-03T05:29:05.138Z,1011.28
2017-06-03T05:30:17.690Z,1011.24
2017-06-03T05:31:30.247Z,1011.31
2017-06-03T05:32:42.470Z,1011.3
2017-06-03T05:33:54.700Z,1011.31
2017-06-03T05:35:06.921Z,1011.32
2017-06-03T05:36:19.456Z,1011.29
2017-06-03T05:37:31.994Z,1011.28
2017-06-03T05:38:44.506Z,1011.3
2017-06-03T05:39:57.018Z,1011.27
2017-06-03T05:41:09.251Z,1011.27
2017-06-03T05:42:21.784Z,1011.3
2017-06-03T05:43:34.331Z,1011.29
2017-06-03T05:44:46.834Z,1011.29
2017-06-03T05:45:58.481Z,1011.29
2017-06-03T05:47:11.029Z,1011.29
2017-06-03T05:48:23.272Z,1011.32
2017-06-03T05:49:35.836Z,1011.31
2017-06-03T05:50:48.056Z,1011.33
2017-06-03T05:52:00.609Z,1011.32
2017-06-03T05:53:12.556Z,1011.3
2017-06-03T05:54:25.052Z,1011.32
2017-06-03T05:55:37.602Z,1011.28
2017-06-03T05:56:50.139Z,1011.24
2017-06-03T05:58:02.067Z,1011.29
2017-06-03T05:59:14.314Z,1011.32
2017-06-03T06:00:26.856Z,1011.29
2017-06-03T06:01:39.354Z,1011.28
2017-06-03T06:02:51.908Z,1011.28
2017-06-03T06:04:04.449Z,1011.25
2017-06-03T06:05:16.969Z,1011.28
2017-06-03T06:06:29.511Z,1011.24
2017-06-03T06:07:42.028Z,1011.24
2017-06-03T06:08:54.581Z,1011.21
2017-06-03T06:10:07.099Z,1011.29
2017-06-03T06:11:19.637Z,1011.3
2017-06-03T06:12:32.444Z,1011.36
2017-06-03T06:13:44.991Z,1011.4
2017-06-03T06:14:57.211Z,1011.4
2017-06-03T06:16:09.771Z,1011.34
2017-06-03T06:17:22.008Z,1011.37
2017-06-03T06:18:34.563Z,1011.52
2017-06-03T06:19:46.769Z,1011.79
2017-06-03T06:20:59.012Z,1011.81
2017-06-03T06:22:10.657Z,1011.56
2017-06-03T06:23:22.271Z,1011.24
2017-06-03T06:24:34.778Z,1011.34
2017-06-03T06:25:47.339Z,1011.37
2017-06-03T06:26:59.884Z,1011.26
2017-06-03T06:28:12.433Z,1011.19
2017-06-03T06:29:24.958Z,1011.15
2017-06-03T06:30:37.504Z,1011.14
2017-06-03T06:31:50.029Z,1011.36
2017-06-03T06:33:02.579Z,1011.42
2017-06-03T06:34:15.410Z,1011.72
2017-06-03T06:35:27.638Z,1012
2017-06-03T06:36:40.189Z,1011.96
2017-06-03T06:37:52.733Z,1011.86
2017-06-03T06:39:04.976Z,1011.97
2017-06-03T06:40:17.513Z,1011.91
2017-06-03T06:41:29.419Z,1011.89
2017-06-03T06:42:41.966Z,1011.81
2017-06-03T06:43:54.509Z,1011.73
2017-06-03T06:45:07.030Z,1011.79
2017-06-03T06:46:19.557Z,1011.76
2017-06-03T06:47:31.803Z,1011.79
2017-06-03T06:48:44.375Z,1011.72
2017-06-03T06:49:56.896Z,1011.74
2017-06-03T06:51:09.162Z,1011.73
2017-06-03T06:52:21.723Z,1011.74
2017-06-03T06:53:34.279Z,1011.76
2017-06-03T06:54:46.819Z,1011.62
2017-06-03T06:55:59.388Z,1011.74
2017-06-03T06:57:11.657Z,1011.51
2017-06-03T06:58:24.181Z,1011.45
2017-06-03T06:59:36.709Z,1011.38
2017-06-03T07:00:48.677Z,1011.36
2017-06-03T07:02:01.245Z,1011.36
2017-06-03T07:03:13.814Z,1011.41
2017-06-03T07:04:26.346Z,1011.47
2017-06-03T07:05:38.583Z,1011.36
2017-06-03T07:06:50.789Z,1011.35
2017-06-03T07:08:03.306Z,1011.31
2017-06-03T07:09:15.552Z,1011.29
2017-06-03T07:10:28.064Z,1011.31
2017-06-03T07:11:40.633Z,1011.28
2017-06-03T07:12:53.156Z,1011.28
2017-06-03T07:14:05.715Z,1011.22
2017-06-03T07:15:18.259Z,1011.29
2017-06-03T07:16:30.528Z,1011.28
2017-06-03T07:17:43.094Z,1011.31
2017-06-03T07:18:55.658Z,1011.34
2017-06-03T07:20:08.191Z,1011.36
2017-06-03T07:21:20.712Z,1011.38
2017-06-03T07:22:33.274Z,1011.37
2017-06-03T07:23:45.804Z,1011.38
2017-06-03T07:24:58.326Z,1011.39
2017-06-03T07:26:10.283Z,1011.42
2017-06-03T07:27:22.813Z,1011.49
2017-06-03T07:28:35.333Z,1011.41
2017-06-03T07:29:47.271Z,1011.43
2017-06-03T07:30:59.506Z,1011.48
2017-06-03T07:32:11.766Z,1011.5
2017-06-03T07:33:23.999Z,1011.55
2017-06-03T07:34:36.543Z,1011.54
2017-06-03T07:35:49.112Z,1011.48
2017-06-03T07:37:01.655Z,1011.35
2017-06-03T07:38:13.910Z,1011.36
2017-06-03T07:39:26.192Z,1011.29
2017-06-03T07:40:38.463Z,1011.32
2017-06-03T07:41:51.037Z,1011.36
2017-06-03T07:43:03.284Z,1011.29
2017-06-03T07:44:15.822Z,1011.32
2017-06-03T07:45:28.345Z,1011.33
2017-06-03T07:46:40.855Z,1011.29
2017-06-03T07:47:53.397Z,1011.31
2017-06-03T07:49:05.634Z,1011.2
2017-06-03T07:50:18.189Z,1011.33
2017-06-03T07:51:30.738Z,1011.36
2017-06-03T07:52:42.979Z,1011.37
2017-06-03T07:53:55.240Z,1011.32
2017-06-03T07:55:07.774Z,1011.36
2017-06-03T07:56:20.048Z,1011.42
2017-06-03T07:57:32.263Z,1011.42
2017-06-03T07:58:44.514Z,1011.43
2017-06-03T07:59:56.782Z,1011.39
2017-06-03T08:01:09.028Z,1011.34
2017-06-03T08:02:21.250Z,1011.34
2017-06-03T08:03:33.185Z,1011.32
2017-06-03T08:04:45.735Z,1011.28
2017-06-03T08:05:58.287Z,1011.24
2017-06-03T08:07:10.811Z,1011.29
2017-06-03T08:08:23.351Z,1011.3
2017-06-03T08:09:35.878Z,1011.29
2017-06-03T08:10:48.436Z,1011.31
2017-06-03T08:12:01.290Z,1011.3
2017-06-03T08:13:13.535Z,1011.29
2017-06-03T08:14:26.106Z,1011.26
2017-06-03T08:15:38.644Z,1011.26
2017-06-03T08:16:50.912Z,1011.29
2017-06-03T08:18:03.447Z,1011.29
2017-06-03T08:19:15.713Z,1011.26
2017-06-03T08:20:27.940Z,1011.27
2017-06-03T08:21:40.483Z,1011.25
2017-06-03T08:22:52.982Z,1011.2
2017-06-03T08:24:05.523Z,1011.19
2017-06-03T08:25:18.058Z,1011.19
2017-06-03T08:26:30.617Z,1011.22
2017-06-03T08:27:42.860Z,1011.24
2017-06-03T08:28:55.431Z,1011.19
2017-06-03T08:30:08.017Z,1011.21
2017-06-03T08:31:20.596Z,1011.22
2017-06-03T08:32:33.136Z,1011.23
2017-06-03T08:33:45.368Z,1011.22
2017-06-03T08:34:57.663Z,1011.18
2017-06-03T08:36:10.204Z,1011.14
2017-06-03T08:37:22.454Z,1011.11
2017-06-03T08:38:34.416Z,1011.07
2017-06-03T08:39:46.967Z,1011.03
2017-06-03T08:40:59.516Z,1011.01
2017-06-03T08:42:12.087Z,1011.03
2017-06-03T08:43:24.648Z,1011.07
2017-06-03T08:44:37.175Z,1011.11
2017-06-03T08:45:49.772Z,1011.09
2017-06-03T08:47:02.360Z,1011.17
2017-06-03T08:48:14.896Z,1011.2
2017-06-03T08:49:27.439Z,1011.18
2017-06-03T08:50:40.000Z,1011.22
2017-06-03T08:51:52.507Z,1011.23
2017-06-03T08:53:05.067Z,1011.24
2017-06-03T08:54:17.617Z,1011.29
2017-06-03T08:55:29.880Z,1011.26
2017-06-03T08:56:42.406Z,1011.12
2017-06-03T08:57:54.957Z,1011.11
2017-06-03T08:59:07.526Z,1011.04
2017-06-03T09:00:20.078Z,1011.06
2017-06-03T09:01:32.647Z,1011.06
2017-06-03T09:02:45.209Z,1011.03
2017-06-03T09:03:57.465Z,1010.96
2017-06-03T09:05:10.034Z,1010.98
2017-06-03T09:06:22.601Z,1010.95
2017-06-03T09:07:34.579Z,1010.89
2017-06-03T09:08:46.827Z,1010.93
2017-06-03T09:09:59.084Z,1010.88
2017-06-03T09:11:11.016Z,1010.81
2017-06-03T09:12:23.578Z,1010.81
2017-06-03T09:13:35.836Z,1010.72
2017-06-03T09:14:48.391Z,1010.7
2017-06-03T09:16:00.620Z,1010.66
2017-06-03T09:17:13.157Z,1010.63
2017-06-03T09:18:25.692Z,1010.66
2017-06-03T09:19:38.210Z,1010.54
2017-06-03T09:20:50.806Z,1010.51
2017-06-03T09:22:02.758Z,1010.47
2017-06-03T09:23:15.025Z,1010.45
2017-06-03T09:24:27.561Z,1010.46
2017-06-03T09:25:39.791Z,1010.54
2017-06-03T09:26:52.036Z,1010.56
2017-06-03T09:28:04.632Z,1010.49
2017-06-03T09:29:16.595Z,1010.52
2017-06-03T09:30:29.169Z,1010.54
2017-06-03T09:31:41.394Z,1010.54
2017-06-03T09:32:53.632Z,1010.58
2017-06-03T09:34:05.583Z,1010.55
2017-06-03T09:35:17.820Z,1010.53
2017-06-03T09:36:30.066Z,1010.61
2017-06-03T09:37:42.600Z,1010.58
2017-06-03T09:38:54.845Z,1010.61
2017-06-03T09:40:07.408Z,1010.6
2017-06-03T09:41:19.634Z,1010.61
2017-06-03T09:42:31.854Z,1010.66
2017-06-03T09:43:44.093Z,1010.68
2017-06-03T09:44:56.631Z,1010.69
2017-06-03T09:46:08.885Z,1010.74
2017-06-03T09:47:21.409Z,1010.72
2017-06-03T09:48:33.659Z,1010.74
2017-06-03T09:49:46.207Z,1010.8
2017-06-03T09:50:58.431Z,1010.88
2017-06-03T09:52:10.993Z,1010.9
2017-06-03T09:53:23.542Z,1010.99
2017-06-03T09:54:35.764Z,1011.03
2017-06-03T09:55:48.030Z,1011.03
2017-06-03T09:57:00.555Z,1011
2017-06-03T09:58:12.522Z,1011
2017-06-03T09:59:25.051Z,1010.97
2017-06-03T10:00:37.293Z,1010.96
2017-06-03T10:01:49.839Z,1010.97
2017-06-03T10:03:02.391Z,1010.98
2017-06-03T10:04:14.333Z,1011.03
2017-06-03T10:05:26.276Z,1011.09
2017-06-03T10:06:38.802Z,1011.05
2017-06-03T10:07:51.397Z,1011.01
2017-06-03T10:09:03.943Z,1011.05
2017-06-03T10:10:16.490Z,1011.01
2017-06-03T10:11:29.023Z,1010.98
2017-06-03T10:12:41.258Z,1011.02
2017-06-03T10:13:53.782Z,1010.93
2017-06-03T10:15:06.012Z,1010.92
2017-06-03T10:16:18.565Z,1010.99
2017-06-03T10:17:31.132Z,1011.03
2017-06-03T10:18:43.402Z,1010.99
2017-06-03T10:19:55.634Z,1010.96
2017-06-03T10:21:08.178Z,1010.97
2017-06-03T10:22:20.675Z,1010.94
2017-06-03T10:23:33.240Z,1010.94
2017-06-03T10:24:45.782Z,1010.87
2017-06-03T10:25:58.035Z,1010.84
2017-06-03T10:27:10.549Z,1010.81
2017-06-03T10:28:23.099Z,1010.81
2017-06-03T10:29:35.649Z,1010.8
2017-06-03T10:30:47.908Z,1010.79
2017-06-03T10:32:00.139Z,1010.78
2017-06-03T10:33:12.379Z,1010.76
2017-06-03T10:34:24.907Z,1010.75
2017-06-03T10:35:37.166Z,1010.75
2017-06-03T10:36:49.092Z,1010.7
2017-06-03T10:38:01.321Z,1010.66
2017-06-03T10:39:13.862Z,1010.66
2017-06-03T10:40:26.386Z,1010.65
2017-06-03T10:41:38.922Z,1010.65
2017-06-03T10:42:51.167Z,1010.62
2017-06-03T10:44:03.695Z,1010.62
2017-06-03T10:45:15.944Z,1010.65
2017-06-03T10:46:28.462Z,1010.63
2017-06-03T10:47:41.009Z,1010.61
2017-06-03T10:48:53.554Z,1010.59
2017-06-03T10:50:05.792Z,1010.54
2017-06-03T10:51:17.743Z,1010.53
2017-06-03T10:52:29.996Z,1010.49
2017-06-03T10:53:42.538Z,1010.48
2017-06-03T10:54:55.086Z,1010.49
2017-06-03T10:56:07.581Z,1010.44
2017-06-03T10:57:20.143Z,1010.46
2017-06-03T10:58:32.374Z,1010.44
2017-06-03T10:59:44.918Z,1010.49
2017-06-03T11:00:57.464Z,1010.48
2017-06-03T11:02:09.690Z,1010.44
2017-06-03T11:03:21.905Z,1010.41
2017-06-03T11:04:34.436Z,1010.43
2017-06-03T11:05:46.953Z,1010.43
2017-06-03T11:06:59.470Z,1010.37
2017-06-03T11:08:12.032Z,1010.39
2017-06-03T11:09:24.563Z,1010.36
2017-06-03T11:10:37.124Z,1010.31
2017-06-03T11:11:49.356Z,1010.3
2017-06-03T11:13:01.918Z,1010.33
2017-06-03T11:14:14.472Z,1010.29
2017-06-03T11:15:26.665Z,1010.28
2017-06-03T11:16:39.203Z,1010.27
2017-06-03T11:17:51.732Z,1010.23
2017-06-03T11:19:04.230Z,1010.28
2017-06-03T11:20:16.474Z,1010.27
2017-06-03T11:21:28.694Z,1010.26
2017-06-03T11:22:40.937Z,1010.24
2017-06-03T11:23:53.167Z,1010.2
2017-06-03T11:25:05.452Z,1010.22
2017-06-03T11:26:18.020Z,1010.23
2017-06-03T11:27:30.252Z,1010.19
2017-06-03T11:28:42.794Z,1010.19
2017-06-03T11:29:55.321Z,1010.2
2017-06-03T11:31:07.882Z,1010.18
2017-06-03T11:32:20.140Z,1010.18
2017-06-03T11:33:32.682Z,1010.18
2017-06-03T11:34:44.900Z,1010.13
2017-06-03T11:35:57.145Z,1010.15
2017-06-03T11:37:09.695Z,1010.14
2017-06-03T11:38:22.232Z,1010.12
2017-06-03T11:39:34.464Z,1010.13
2017-06-03T11:40:46.997Z,1010.09
2017-06-03T11:41:59.256Z,1010.08
2017-06-03T11:43:11.217Z,1010.05
2017-06-03T11:44:23.738Z,1010.07
2017-06-03T11:45:36.266Z,1010.05
2017-06-03T11:46:48.811Z,1010.02
2017-06-03T11:48:01.075Z,1010.08
2017-06-03T11:49:13.643Z,1010.06
2017-06-03T11:50:26.176Z,1010.05
2017-06-03T11:51:38.696Z,1010.03
2017-06-03T11:52:51.238Z,1010.07
2017-06-03T11:54:03.488Z,1010.05
2017-06-03T11:55:16.033Z,1010.05
2017-06-03T11:56:28.572Z,1010.02
2017-06-03T11:57:40.814Z,1009.99
2017-06-03T11:58:52.772Z,1009.94
2017-06-03T12:00:05.290Z,1009.93
2017-06-03T12:01:17.813Z,1010
2017-06-03T12:02:30.356Z,1010.02
2017-06-03T12:03:42.906Z,1010.05
2017-06-03T12:04:55.431Z,1010.1
2017-06-03T12:06:07.672Z,1010.08
2017-06-03T12:07:20.213Z,1010.07
2017-06-03T12:08:32.159Z,1010.1
2017-06-03T12:09:44.701Z,1010.12
2017-06-03T12:10:57.227Z,1010.14
2017-06-03T12:12:09.449Z,1010.11
2017-06-03T12:13:22.002Z,1010.06
2017-06-03T12:14:34.549Z,1010
2017-06-03T12:15:47.088Z,1009.96
2017-06-03T12:16:59.349Z,1009.93
2017-06-03T12:18:11.573Z,1009.9
2017-06-03T12:19:24.081Z,1009.87
2017-06-03T12:20:36.015Z,1009.82
2017-06-03T12:21:48.265Z,1009.82
2017-06-03T12:23:00.814Z,1009.81
2017-06-03T12:24:13.352Z,1009.81
2017-06-03T12:25:25.580Z,1009.85
2017-06-03T12:26:37.827Z,1009.82
2017-06-03T12:27:50.387Z,1009.81
2017-06-03T12:29:02.912Z,1009.78
2017-06-03T12:30:15.466Z,1009.76
2017-06-03T12:31:28.012Z,1009.73
2017-06-03T12:32:40.556Z,1009.68
2017-06-03T12:33:52.774Z,1009.7
2017-06-03T12:35:05.312Z,1009.68
2017-06-03T12:36:17.538Z,1009.62
2017-06-03T12:37:29.788Z,1009.57
2017-06-03T12:38:42.329Z,1009.55
2017-06-03T12:39:54.582Z,1009.52
2017-06-03T12:41:07.146Z,1009.44
2017-06-03T12:42:19.049Z,1009.36
2017-06-03T12:43:31.845Z,1009.36
2017-06-03T12:44:44.380Z,1009.29
2017-06-03T12:45:56.617Z,1009.31
2017-06-03T12:47:09.179Z,1009.24
2017-06-03T12:48:21.727Z,1009.29
2017-06-03T12:49:33.671Z,1009.33
2017-06-03T12:50:46.185Z,1009.35
2017-06-03T12:51:58.730Z,1009.29
2017-06-03T12:53:10.938Z,1009.32
2017-06-03T12:54:23.454Z,1009.31
2017-06-03T12:55:35.992Z,1009.3
2017-06-03T12:56:48.525Z,1009.29
2017-06-03T12:58:01.068Z,1009.22
2017-06-03T12:59:13.612Z,1009.16
2017-06-03T13:00:25.859Z,1009.08
2017-06-03T13:01:38.398Z,1009.04
2017-06-03T13:02:50.926Z,1009.03
2017-06-03T13:04:03.168Z,1009.05
2017-06-03T13:05:15.693Z,1009.04
2017-06-03T13:06:28.189Z,1009.03
2017-06-03T13:07:40.735Z,1009
2017-06-03T13:08:53.278Z,1008.94
2017-06-03T13:10:05.801Z,1008.87
2017-06-03T13:11:18.347Z,1008.9
2017-06-03T13:12:30.914Z,1008.88
2017-06-03T13:13:43.480Z,1008.89
2017-06-03T13:14:55.990Z,1008.9
2017-06-03T13:16:08.232Z,1008.95
2017-06-03T13:17:20.777Z,1008.91
2017-06-03T13:18:33.331Z,1008.89
2017-06-03T13:19:45.874Z,1008.89
2017-06-03T13:20:58.094Z,1008.89
2017-06-03T13:22:10.654Z,1008.86
2017-06-03T13:23:22.599Z,1008.76
2017-06-03T13:24:34.849Z,1008.65
2017-06-03T13:25:47.074Z,1008.63
2017-06-03T13:26:59.612Z,1008.65
2017-06-03T13:28:12.136Z,1008.6
2017-06-03T13:29:24.686Z,1008.58
2017-06-03T13:30:37.199Z,1008.58
2017-06-03T13:31:49.438Z,1008.53
2017-06-03T13:33:01.691Z,1008.53
2017-06-03T13:34:14.196Z,1008.5
2017-06-03T13:35:26.437Z,1008.52
2017-06-03T13:36:38.687Z,1008.45
2017-06-03T13:37:51.204Z,1008.45
2017-06-03T13:39:03.754Z,1008.38
2017-06-03T13:40:16.317Z,1008.37
2017-06-03T13:41:28.880Z,1008.34
2017-06-03T13:42:41.398Z,1008.26
2017-06-03T13:43:53.337Z,1008.23
2017-06-03T13:45:05.562Z,1008.25
2017-06-03T13:46:17.779Z,1008.26
2017-06-03T13:47:30.302Z,1008.27
2017-06-03T13:48:42.845Z,1008.26
2017-06-03T13:49:55.071Z,1008.27
2017-06-03T13:51:07.318Z,1008.24
2017-06-03T13:52:19.851Z,1008.28
2017-06-03T13:53:31.484Z,1008.35
2017-06-03T13:54:43.746Z,1008.38
2017-06-03T13:55:56.273Z,1008.38
2017-06-03T13:57:08.192Z,1008.36
2017-06-03T13:58:20.706Z,1008.33
2017-06-03T13:59:33.237Z,1008.27
2017-06-03T14:00:45.197Z,1008.19
2017-06-03T14:01:57.433Z,1008.19
2017-06-03T14:03:09.700Z,1008.1
2017-06-03T14:04:22.236Z,1008.05
2017-06-03T14:05:34.760Z,1008.04
2017-06-03T14:06:47.293Z,1008.07
2017-06-03T14:07:59.825Z,1008.05
2017-06-03T14:09:12.081Z,1008.01
2017-06-03T14:10:24.615Z,1008.06
2017-06-03T14:11:36.865Z,1008.03
2017-06-03T14:12:49.415Z,1008.01
2017-06-03T14:14:01.942Z,1008.01
2017-06-03T14:15:14.185Z,1008.03
2017-06-03T14:16:26.419Z,1008.05
2017-06-03T14:17:38.979Z,1008.05
2017-06-03T14:18:51.540Z,1008.04
2017-06-03T14:20:03.785Z,1007.99
2017-06-03T14:21:16.015Z,1008
2017-06-03T14:22:28.585Z,1007.88
2017-06-03T14:23:41.123Z,1007.86
2017-06-03T14:24:53.655Z,1007.88
2017-06-03T14:26:06.204Z,1007.92
2017-06-03T14:27:18.742Z,1007.93
2017-06-03T14:28:31.253Z,1007.87
2017-06-03T14:29:43.760Z,1007.79
2017-06-03T14:30:55.999Z,1007.76
2017-06-03T14:32:08.775Z,1007.73
2017-06-03T14:33:20.994Z,1007.72
2017-06-03T14:34:33.519Z,1007.66
2017-06-03T14:35:46.064Z,1007.62
2017-06-03T14:36:58.589Z,1007.58
2017-06-03T14:38:11.127Z,1007.57
2017-06-03T14:39:23.097Z,1007.54